createdAt,value
2022-12-28T00:00:05.163Z,98868.00
2022-12-28T00:00:15.213Z,98868.00
2022-12-28T00:00:25.549Z,98870.00
2022-12-28T00:00:35.715Z,98868.00
2022-12-28T00:00:45.646Z,98868.00
2022-12-28T00:00:55.640Z,98868.00
2022-12-28T00:01:05.648Z,98866.00
2022-12-28T00:01:15.644Z,98870.00
2022-12-28T00:01:25.659Z,98868.00
2022-12-28T00:01:35.720Z,98866.00
2022-12-28T00:01:45.762Z,98868.00
2022-12-28T00:01:55.803Z,98866.00
2022-12-28T00:02:05.886Z,98864.00
2022-12-28T00:02:15.973Z,98866.00
2022-12-28T00:02:26.047Z,98866.00
2022-12-28T00:02:36.117Z,98866.00
2022-12-28T00:02:46.437Z,98864.00
2022-12-28T00:02:56.425Z,98864.00
2022-12-28T00:03:06.521Z,98864.00
2022-12-28T00:03:16.547Z,98866.00
2022-12-28T00:03:26.567Z,98868.00
2022-12-28T00:03:36.563Z,98864.00
2022-12-28T00:03:46.585Z,98864.00
2022-12-28T00:03:56.592Z,98864.00
2022-12-28T00:04:06.619Z,98862.00
2022-12-28T00:04:16.609Z,98862.00
2022-12-28T00:04:26.981Z,98860.00
2022-12-28T00:04:36.981Z,98866.00
2022-12-28T00:04:46.990Z,98866.00
2022-12-28T00:04:57.001Z,98860.00
2022-12-28T00:05:07.020Z,98862.00
2022-12-28T00:05:17.028Z,98860.00
2022-12-28T00:05:27.031Z,98860.00
2022-12-28T00:05:37.061Z,98860.00
2022-12-28T00:05:47.063Z,98859.00
2022-12-28T00:05:57.065Z,98860.00
2022-12-28T00:06:07.451Z,98859.00
2022-12-28T00:06:17.452Z,98859.00
2022-12-28T00:06:27.468Z,98864.00
2022-12-28T00:06:37.464Z,98859.00
2022-12-28T00:06:47.560Z,98864.00
2022-12-28T00:06:57.548Z,98862.00
2022-12-28T00:07:07.669Z,98862.00
2022-12-28T00:07:17.692Z,98862.00
2022-12-28T00:07:27.830Z,98860.00
2022-12-28T00:07:37.828Z,98862.00
2022-12-28T00:07:47.879Z,98864.00
2022-12-28T00:07:57.885Z,98862.00
2022-12-28T00:08:07.918Z,98862.00
2022-12-28T00:08:17.932Z,98862.00
2022-12-28T00:08:28.069Z,98864.00
2022-12-28T00:08:38.079Z,98864.00
2022-12-28T00:08:48.108Z,98864.00
2022-12-28T00:08:58.140Z,98859.00
2022-12-28T00:09:08.147Z,98859.00
2022-12-28T00:09:18.157Z,98859.00
2022-12-28T00:09:28.205Z,98860.00
2022-12-28T00:09:38.218Z,98862.00
2022-12-28T00:09:48.222Z,98862.00
2022-12-28T00:09:58.219Z,98864.00
2022-12-28T00:10:08.321Z,98860.00
2022-12-28T00:10:18.316Z,98859.00
2022-12-28T00:11:06.575Z,98857.00
2022-12-28T00:11:07.213Z,98855.00
2022-12-28T00:11:07.277Z,98860.00
2022-12-28T00:11:08.266Z,98857.00
2022-12-28T00:11:12.260Z,98857.00
2022-12-28T00:11:28.539Z,98859.00
2022-12-28T00:11:30.944Z,98857.00
2022-12-28T00:11:38.507Z,98855.00
2022-12-28T00:11:48.631Z,98855.00
2022-12-28T00:11:58.619Z,98857.00
2022-12-28T00:12:08.624Z,98857.00
2022-12-28T00:12:18.639Z,98853.00
2022-12-28T00:12:28.633Z,98855.00
2022-12-28T00:12:38.631Z,98853.00
2022-12-28T00:12:48.748Z,98855.00
2022-12-28T00:12:58.748Z,98853.00
2022-12-28T00:13:09.015Z,98855.00
2022-12-28T00:13:19.024Z,98853.00
2022-12-28T00:13:29.021Z,98853.00
2022-12-28T00:13:39.024Z,98853.00
2022-12-28T00:13:49.150Z,98853.00
2022-12-28T00:13:59.154Z,98853.00
2022-12-28T00:14:09.167Z,98855.00
2022-12-28T00:14:19.207Z,98855.00
2022-12-28T00:14:29.227Z,98855.00
2022-12-28T00:14:39.282Z,98855.00
2022-12-28T00:14:49.571Z,98853.00
2022-12-28T00:14:59.577Z,98853.00
2022-12-28T00:15:09.577Z,98853.00
2022-12-28T00:15:19.579Z,98853.00
2022-12-28T00:15:29.597Z,98855.00
2022-12-28T00:15:39.601Z,98851.00
2022-12-28T00:15:49.620Z,98853.00
2022-12-28T00:15:59.684Z,98853.00
2022-12-28T00:16:09.845Z,98857.00
2022-12-28T00:16:19.744Z,98855.00
2022-12-28T00:16:29.857Z,98853.00
2022-12-28T00:16:39.864Z,98853.00
2022-12-28T00:16:49.929Z,98851.00
2022-12-28T00:16:59.945Z,98855.00
2022-12-28T00:17:10.072Z,98849.00
2022-12-28T00:17:20.196Z,98851.00
2022-12-28T00:17:30.210Z,98853.00
2022-12-28T00:17:40.482Z,98851.00
2022-12-28T00:17:50.483Z,98853.00
2022-12-28T00:18:00.495Z,98851.00
2022-12-28T00:18:10.488Z,98853.00
2022-12-28T00:18:20.602Z,98849.00
2022-12-28T00:18:30.611Z,98853.00
2022-12-28T00:18:40.616Z,98849.00
2022-12-28T00:18:50.746Z,98851.00
2022-12-28T00:19:00.884Z,98851.00
2022-12-28T00:19:10.886Z,98853.00
2022-12-28T00:19:21.155Z,98851.00
2022-12-28T00:19:31.168Z,98851.00
2022-12-28T00:19:41.172Z,98853.00
2022-12-28T00:19:51.185Z,98853.00
2022-12-28T00:20:01.202Z,98851.00
2022-12-28T00:20:11.207Z,98853.00
2022-12-28T00:20:21.215Z,98853.00
2022-12-28T00:20:31.225Z,98851.00
2022-12-28T00:20:41.258Z,98853.00
2022-12-28T00:20:51.271Z,98851.00
2022-12-28T00:21:01.279Z,98853.00
2022-12-28T00:21:11.274Z,98853.00
2022-12-28T00:21:21.279Z,98853.00
2022-12-28T00:21:31.307Z,98851.00
2022-12-28T00:21:41.300Z,98851.00
2022-12-28T00:21:51.309Z,98851.00
2022-12-28T00:22:01.315Z,98851.00
2022-12-28T00:22:11.322Z,98851.00
2022-12-28T00:22:21.333Z,98849.00
2022-12-28T00:22:31.383Z,98849.00
2022-12-28T00:22:41.373Z,98849.00
2022-12-28T00:22:51.384Z,98849.00
2022-12-28T00:23:01.509Z,98849.00
2022-12-28T00:23:11.511Z,98849.00
2022-12-28T00:23:21.778Z,98847.00
2022-12-28T00:23:31.782Z,98851.00
2022-12-28T00:23:41.784Z,98849.00
2022-12-28T00:23:51.783Z,98847.00
2022-12-28T00:24:01.821Z,98849.00
2022-12-28T00:24:11.825Z,98849.00
2022-12-28T00:24:21.846Z,98849.00
2022-12-28T00:24:31.841Z,98851.00
2022-12-28T00:24:41.969Z,98847.00
2022-12-28T00:24:51.993Z,98849.00
2022-12-28T00:25:02.244Z,98851.00
2022-12-28T00:25:12.243Z,98849.00
2022-12-28T00:25:22.370Z,98849.00
2022-12-28T00:25:32.636Z,98851.00
2022-12-28T00:25:42.757Z,98847.00
2022-12-28T00:25:52.767Z,98847.00
2022-12-28T00:26:03.020Z,98847.00
2022-12-28T00:26:13.025Z,98847.00
2022-12-28T00:26:23.029Z,98845.00
2022-12-28T00:26:33.062Z,98847.00
2022-12-28T00:26:43.052Z,98847.00
2022-12-28T00:26:53.060Z,98847.00
2022-12-28T00:27:03.094Z,98847.00
2022-12-28T00:27:13.103Z,98847.00
2022-12-28T00:27:23.099Z,98845.00
2022-12-28T00:27:33.118Z,98845.00
2022-12-28T00:27:43.123Z,98843.00
2022-12-28T00:27:53.136Z,98845.00
2022-12-28T00:28:03.141Z,98843.00
2022-12-28T00:28:13.151Z,98843.00
2022-12-28T00:28:23.164Z,98841.00
2022-12-28T00:28:33.163Z,98845.00
2022-12-28T00:28:43.179Z,98845.00
2022-12-28T00:28:56.940Z,98841.00
2022-12-28T00:29:05.754Z,98843.00
2022-12-28T00:29:13.437Z,98843.00
2022-12-28T00:29:23.429Z,98841.00
2022-12-28T00:29:33.479Z,98839.00
2022-12-28T00:29:43.493Z,98841.00
2022-12-28T00:29:53.490Z,98841.00
2022-12-28T00:30:03.617Z,98841.00
2022-12-28T00:30:13.620Z,98841.00
2022-12-28T00:30:23.753Z,98839.00
2022-12-28T00:30:33.748Z,98839.00
2022-12-28T00:30:43.878Z,98839.00
2022-12-28T00:30:53.893Z,98837.00
2022-12-28T00:31:03.897Z,98839.00
2022-12-28T00:31:13.914Z,98837.00
2022-12-28T00:31:23.960Z,98837.00
2022-12-28T00:31:34.325Z,98837.00
2022-12-28T00:31:44.020Z,98837.00
2022-12-28T00:31:54.121Z,98837.00
2022-12-28T00:32:04.121Z,98837.00
2022-12-28T00:32:14.120Z,98835.00
2022-12-28T00:32:24.130Z,98833.00
2022-12-28T00:32:34.183Z,98835.00
2022-12-28T00:32:44.186Z,98837.00
2022-12-28T00:32:54.183Z,98833.00
2022-12-28T00:33:04.209Z,98835.00
2022-12-28T00:33:14.203Z,98833.00
2022-12-28T00:33:24.206Z,98835.00
2022-12-28T00:33:34.207Z,98835.00
2022-12-28T00:33:44.207Z,98833.00
2022-12-28T00:33:54.247Z,98831.00
2022-12-28T00:34:04.258Z,98831.00
2022-12-28T00:34:14.274Z,98833.00
2022-12-28T00:34:24.384Z,98829.00
2022-12-28T00:34:34.378Z,98831.00
2022-12-28T00:34:44.650Z,98833.00
2022-12-28T00:34:54.653Z,98833.00
2022-12-28T00:35:04.795Z,98831.00
2022-12-28T00:35:15.055Z,98835.00
2022-12-28T00:35:25.054Z,98833.00
2022-12-28T00:35:35.057Z,98833.00
2022-12-28T00:35:45.060Z,98833.00
2022-12-28T00:35:55.067Z,98831.00
2022-12-28T00:36:05.190Z,98831.00
2022-12-28T00:36:15.197Z,98831.00
2022-12-28T00:36:25.320Z,98831.00
2022-12-28T00:37:08.433Z,98833.00
2022-12-28T00:37:09.268Z,98833.00
2022-12-28T00:37:09.758Z,98833.00
2022-12-28T00:37:11.203Z,98833.00
2022-12-28T00:37:15.567Z,98833.00
2022-12-28T00:37:25.685Z,98833.00
2022-12-28T00:37:35.731Z,98833.00
2022-12-28T00:37:45.712Z,98833.00
2022-12-28T00:37:55.707Z,98833.00
2022-12-28T00:38:05.839Z,98833.00
2022-12-28T00:38:15.845Z,98833.00
2022-12-28T00:38:25.855Z,98833.00
2022-12-28T00:38:36.117Z,98833.00
2022-12-28T00:38:46.239Z,98833.00
2022-12-28T00:38:56.232Z,98829.00
2022-12-28T00:39:06.493Z,98835.00
2022-12-28T00:39:16.493Z,98833.00
2022-12-28T00:39:26.618Z,98831.00
2022-12-28T00:39:36.925Z,98833.00
2022-12-28T00:39:46.935Z,98829.00
2022-12-28T00:39:56.933Z,98833.00
2022-12-28T00:40:07.323Z,98831.00
2022-12-28T00:40:23.654Z,98831.00
2022-12-28T00:40:27.446Z,98829.00
2022-12-28T00:40:37.446Z,98831.00
2022-12-28T00:40:47.454Z,98831.00
2022-12-28T00:40:57.457Z,98831.00
2022-12-28T00:41:07.576Z,98827.00
2022-12-28T00:41:17.610Z,98831.00
2022-12-28T00:41:27.645Z,98829.00
2022-12-28T00:41:37.634Z,98829.00
2022-12-28T00:41:47.909Z,98829.00
2022-12-28T00:41:57.908Z,98829.00
2022-12-28T00:42:07.936Z,98829.00
2022-12-28T00:42:17.960Z,98829.00
2022-12-28T00:42:27.967Z,98831.00
2022-12-28T00:42:37.985Z,98829.00
2022-12-28T00:42:47.971Z,98833.00
2022-12-28T00:42:57.981Z,98831.00
2022-12-28T00:43:07.973Z,98829.00
2022-12-28T00:43:17.973Z,98829.00
2022-12-28T00:43:28.347Z,98829.00
2022-12-28T00:43:38.360Z,98829.00
2022-12-28T00:43:48.371Z,98829.00
2022-12-28T00:43:58.375Z,98831.00
2022-12-28T00:44:08.402Z,98829.00
2022-12-28T00:44:18.395Z,98829.00
2022-12-28T00:44:28.522Z,98831.00
2022-12-28T00:44:38.525Z,98829.00
2022-12-28T00:44:48.661Z,98829.00
2022-12-28T00:44:58.671Z,98827.00
2022-12-28T00:45:08.794Z,98827.00
2022-12-28T00:45:18.793Z,98827.00
2022-12-28T00:45:28.827Z,98825.00
2022-12-28T00:45:38.854Z,98827.00
2022-12-28T00:45:48.888Z,98827.00
2022-12-28T00:45:58.948Z,98825.00
2022-12-28T00:46:09.007Z,98823.00
2022-12-28T00:46:19.032Z,98821.00
2022-12-28T00:46:29.173Z,98823.00
2022-12-28T00:46:39.197Z,98823.00
2022-12-28T00:46:49.453Z,98823.00
2022-12-28T00:46:59.460Z,98823.00
2022-12-28T00:47:09.497Z,98821.00
2022-12-28T00:47:19.485Z,98825.00
2022-12-28T00:47:29.491Z,98823.00
2022-12-28T00:47:39.512Z,98823.00
2022-12-28T00:47:49.506Z,98825.00
2022-12-28T00:47:59.533Z,98825.00
2022-12-28T00:48:09.526Z,98823.00
2022-12-28T00:48:19.538Z,98823.00
2022-12-28T00:48:29.569Z,98821.00
2022-12-28T00:48:39.590Z,98821.00
2022-12-28T00:48:49.584Z,98821.00
2022-12-28T00:48:59.586Z,98821.00
2022-12-28T00:49:09.590Z,98819.00
2022-12-28T00:49:19.598Z,98819.00
2022-12-28T00:49:29.606Z,98821.00
2022-12-28T00:49:39.619Z,98821.00
2022-12-28T00:49:49.634Z,98821.00
2022-12-28T00:49:59.650Z,98823.00
2022-12-28T00:50:09.645Z,98821.00
2022-12-28T00:50:19.681Z,98821.00
2022-12-28T00:50:29.675Z,98823.00
2022-12-28T00:50:39.680Z,98821.00
2022-12-28T00:50:49.691Z,98821.00
2022-12-28T00:50:59.695Z,98821.00
2022-12-28T00:51:09.709Z,98823.00
2022-12-28T00:51:19.734Z,98823.00
2022-12-28T00:51:29.731Z,98823.00
2022-12-28T00:51:39.755Z,98823.00
2022-12-28T00:51:49.747Z,98825.00
2022-12-28T00:51:59.785Z,98825.00
2022-12-28T00:52:09.768Z,98825.00
2022-12-28T00:52:19.767Z,98827.00
2022-12-28T00:52:29.890Z,98825.00
2022-12-28T00:52:39.938Z,98827.00
2022-12-28T00:52:49.913Z,98827.00
2022-12-28T00:52:59.914Z,98827.00
2022-12-28T00:53:10.188Z,98825.00
2022-12-28T00:53:20.193Z,98827.00
2022-12-28T00:53:30.308Z,98827.00
2022-12-28T00:53:40.594Z,98829.00
2022-12-28T00:53:50.579Z,98827.00
2022-12-28T00:54:00.586Z,98829.00
2022-12-28T00:54:10.593Z,98829.00
2022-12-28T00:54:20.600Z,98829.00
2022-12-28T00:54:30.608Z,98829.00
2022-12-28T00:54:40.606Z,98827.00
2022-12-28T00:54:50.625Z,98829.00
2022-12-28T00:55:00.648Z,98827.00
2022-12-28T00:55:10.647Z,98825.00
2022-12-28T00:55:20.649Z,98829.00
2022-12-28T00:55:30.662Z,98827.00
2022-12-28T00:55:40.685Z,98831.00
2022-12-28T00:55:50.680Z,98827.00
2022-12-28T00:56:00.696Z,98829.00
2022-12-28T00:56:10.698Z,98829.00
2022-12-28T00:56:20.721Z,98829.00
2022-12-28T00:56:30.714Z,98829.00
2022-12-28T00:56:40.736Z,98831.00
2022-12-28T00:56:50.745Z,98829.00
2022-12-28T00:57:00.745Z,98829.00
2022-12-28T00:57:10.760Z,98829.00
2022-12-28T00:57:20.773Z,98831.00
2022-12-28T00:57:30.782Z,98831.00
2022-12-28T00:57:40.801Z,98833.00
2022-12-28T00:57:50.800Z,98831.00
2022-12-28T00:58:00.800Z,98831.00
2022-12-28T00:58:10.924Z,98833.00
2022-12-28T00:58:20.934Z,98831.00
2022-12-28T00:58:30.944Z,98833.00
2022-12-28T00:58:40.966Z,98833.00
2022-12-28T00:58:51.228Z,98833.00
2022-12-28T00:59:01.240Z,98833.00
2022-12-28T00:59:11.240Z,98835.00
2022-12-28T00:59:21.241Z,98835.00
2022-12-28T00:59:31.252Z,98835.00
2022-12-28T00:59:41.257Z,98835.00
2022-12-28T00:59:51.254Z,98837.00
2022-12-28T01:00:01.384Z,98835.00
2022-12-28T01:00:11.382Z,98835.00
2022-12-28T01:00:21.387Z,98835.00
2022-12-28T01:00:31.660Z,98835.00
2022-12-28T01:00:41.711Z,98835.00
2022-12-28T01:00:51.757Z,98833.00
2022-12-28T01:01:01.883Z,98831.00
2022-12-28T01:01:11.917Z,98831.00
2022-12-28T01:01:22.104Z,98833.00
2022-12-28T01:01:32.105Z,98833.00
2022-12-28T01:01:42.325Z,98833.00
2022-12-28T01:01:52.238Z,98831.00
2022-12-28T01:02:02.405Z,98831.00
2022-12-28T01:02:12.703Z,98831.00
2022-12-28T01:02:22.680Z,98831.00
2022-12-28T01:02:32.756Z,98831.00
2022-12-28T01:02:42.795Z,98829.00
2022-12-28T01:02:52.817Z,98831.00
2022-12-28T01:03:02.892Z,98829.00
2022-12-28T01:03:12.889Z,98829.00
2022-12-28T01:03:22.905Z,98827.00
2022-12-28T01:03:32.929Z,98827.00
2022-12-28T01:03:42.911Z,98825.00
2022-12-28T01:03:52.912Z,98827.00
2022-12-28T01:04:03.054Z,98829.00
2022-12-28T01:04:13.064Z,98825.00
2022-12-28T01:04:23.193Z,98827.00
2022-12-28T01:04:33.200Z,98825.00
2022-12-28T01:04:43.205Z,98829.00
2022-12-28T01:04:53.216Z,98829.00
2022-12-28T01:05:03.396Z,98829.00
2022-12-28T01:05:13.395Z,98827.00
2022-12-28T01:05:23.407Z,98827.00
2022-12-28T01:05:33.401Z,98827.00
2022-12-28T01:05:43.411Z,98827.00
2022-12-28T01:05:53.415Z,98829.00
2022-12-28T01:06:03.649Z,98829.00
2022-12-28T01:06:13.548Z,98823.00
2022-12-28T01:06:23.553Z,98825.00
2022-12-28T01:06:33.555Z,98827.00
2022-12-28T01:06:43.826Z,98827.00
2022-12-28T01:06:53.822Z,98827.00
2022-12-28T01:07:03.833Z,98825.00
2022-12-28T01:07:13.840Z,98825.00
2022-12-28T01:07:23.845Z,98825.00
2022-12-28T01:07:33.836Z,98823.00
2022-12-28T01:07:43.990Z,98827.00
2022-12-28T01:07:54.016Z,98825.00
2022-12-28T01:08:04.033Z,98825.00
2022-12-28T01:08:14.023Z,98823.00
2022-12-28T01:08:24.301Z,98823.00
2022-12-28T01:08:34.286Z,98827.00
2022-12-28T01:08:44.720Z,98825.00
2022-12-28T01:08:54.651Z,98825.00
2022-12-28T01:09:04.782Z,98825.00
2022-12-28T01:09:14.780Z,98821.00
2022-12-28T01:09:25.043Z,98821.00
2022-12-28T01:09:35.046Z,98821.00
2022-12-28T01:09:45.163Z,98821.00
2022-12-28T01:09:55.419Z,98825.00
2022-12-28T01:10:05.426Z,98821.00
2022-12-28T01:10:15.433Z,98821.00
2022-12-28T01:10:25.817Z,98817.00
2022-12-28T01:10:35.856Z,98821.00
2022-12-28T01:10:45.870Z,98821.00
2022-12-28T01:10:55.876Z,98823.00
2022-12-28T01:11:05.890Z,98821.00
2022-12-28T01:11:15.891Z,98819.00
2022-12-28T01:11:25.897Z,98821.00
2022-12-28T01:11:35.899Z,98819.00
2022-12-28T01:11:45.903Z,98819.00
2022-12-28T01:11:55.907Z,98819.00
2022-12-28T01:12:05.912Z,98819.00
2022-12-28T01:12:15.916Z,98821.00
2022-12-28T01:12:26.035Z,98821.00
2022-12-28T01:12:38.341Z,98821.00
2022-12-28T01:12:46.150Z,98821.00
2022-12-28T01:12:56.146Z,98819.00
2022-12-28T01:13:06.408Z,98821.00
2022-12-28T01:13:16.411Z,98821.00
2022-12-28T01:13:26.407Z,98821.00
2022-12-28T01:13:36.410Z,98821.00
2022-12-28T01:13:46.409Z,98821.00
2022-12-28T01:13:56.418Z,98823.00
2022-12-28T01:14:06.532Z,98823.00
2022-12-28T01:14:16.536Z,98819.00
2022-12-28T01:14:26.664Z,98823.00
2022-12-28T01:14:36.664Z,98821.00
2022-12-28T01:14:46.817Z,98821.00
2022-12-28T01:14:56.809Z,98821.00
2022-12-28T01:15:06.918Z,98821.00
2022-12-28T01:15:17.185Z,98823.00
2022-12-28T01:15:27.186Z,98823.00
2022-12-28T01:15:37.191Z,98821.00
2022-12-28T01:15:47.210Z,98823.00
2022-12-28T01:15:57.216Z,98823.00
2022-12-28T01:16:07.254Z,98825.00
2022-12-28T01:16:17.254Z,98825.00
2022-12-28T01:16:27.409Z,98825.00
2022-12-28T01:16:37.623Z,98825.00
2022-12-28T01:16:47.435Z,98823.00
2022-12-28T01:16:57.541Z,98827.00
2022-12-28T01:17:07.699Z,98825.00
2022-12-28T01:17:17.698Z,98825.00
2022-12-28T01:17:27.823Z,98827.00
2022-12-28T01:17:38.071Z,98825.00
2022-12-28T01:17:48.094Z,98825.00
2022-12-28T01:17:58.095Z,98825.00
2022-12-28T01:18:08.109Z,98827.00
2022-12-28T01:18:18.209Z,98825.00
2022-12-28T01:18:28.223Z,98825.00
2022-12-28T01:18:38.277Z,98827.00
2022-12-28T01:18:48.436Z,98827.00
2022-12-28T01:18:58.438Z,98827.00
2022-12-28T01:19:08.918Z,98827.00
2022-12-28T01:19:18.817Z,98829.00
2022-12-28T01:19:28.801Z,98829.00
2022-12-28T01:19:38.808Z,98829.00
2022-12-28T01:19:53.781Z,98829.00
2022-12-28T01:19:58.805Z,98829.00
2022-12-28T01:20:08.927Z,98829.00
2022-12-28T01:20:18.937Z,98829.00
2022-12-28T01:20:28.950Z,98829.00
2022-12-28T01:20:38.944Z,98829.00
2022-12-28T01:20:49.066Z,98829.00
2022-12-28T01:20:59.064Z,98827.00
2022-12-28T01:21:09.087Z,98827.00
2022-12-28T01:21:19.352Z,98829.00
2022-12-28T01:21:29.463Z,98827.00
2022-12-28T01:21:39.467Z,98825.00
2022-12-28T01:21:49.718Z,98827.00
2022-12-28T01:21:59.716Z,98825.00
2022-12-28T01:22:09.835Z,98825.00
2022-12-28T01:22:20.101Z,98825.00
2022-12-28T01:22:30.218Z,98825.00
2022-12-28T01:22:40.222Z,98827.00
2022-12-28T01:22:50.502Z,98823.00
2022-12-28T01:23:00.485Z,98825.00
2022-12-28T01:23:10.615Z,98821.00
2022-12-28T01:23:20.868Z,98823.00
2022-12-28T01:23:30.869Z,98823.00
2022-12-28T01:23:40.869Z,98823.00
2022-12-28T01:23:51.248Z,98825.00
2022-12-28T01:24:01.245Z,98825.00
2022-12-28T01:24:11.367Z,98821.00
2022-12-28T01:24:21.629Z,98825.00
2022-12-28T01:24:31.757Z,98823.00
2022-12-28T01:24:41.763Z,98823.00
2022-12-28T01:24:52.023Z,98823.00
2022-12-28T01:25:02.032Z,98823.00
2022-12-28T01:25:12.022Z,98825.00
2022-12-28T01:25:22.031Z,98823.00
2022-12-28T01:25:32.050Z,98821.00
2022-12-28T01:25:42.063Z,98823.00
2022-12-28T01:25:52.070Z,98823.00
2022-12-28T01:26:02.072Z,98823.00
2022-12-28T01:26:12.075Z,98825.00
2022-12-28T01:26:22.085Z,98825.00
2022-12-28T01:26:32.470Z,98825.00
2022-12-28T01:26:42.478Z,98827.00
2022-12-28T01:26:52.584Z,98827.00
2022-12-28T01:27:02.837Z,98825.00
2022-12-28T01:27:12.845Z,98827.00
2022-12-28T01:27:22.849Z,98831.00
2022-12-28T01:27:32.863Z,98829.00
2022-12-28T01:27:42.868Z,98829.00
2022-12-28T01:27:52.886Z,98829.00
2022-12-28T01:28:02.895Z,98831.00
2022-12-28T01:28:12.911Z,98831.00
2022-12-28T01:28:22.912Z,98829.00
2022-12-28T01:28:32.916Z,98831.00
2022-12-28T01:28:42.925Z,98831.00
2022-12-28T01:28:53.075Z,98833.00
2022-12-28T01:29:03.067Z,98831.00
2022-12-28T01:29:13.061Z,98829.00
2022-12-28T01:29:23.082Z,98831.00
2022-12-28T01:29:33.074Z,98829.00
2022-12-28T01:29:43.087Z,98831.00
2022-12-28T01:29:53.357Z,98831.00
2022-12-28T01:30:03.386Z,98831.00
2022-12-28T01:30:13.390Z,98831.00
2022-12-28T01:30:23.397Z,98831.00
2022-12-28T01:30:33.518Z,98833.00
2022-12-28T01:30:43.523Z,98831.00
2022-12-28T01:30:53.551Z,98831.00
2022-12-28T01:31:03.534Z,98833.00
2022-12-28T01:31:13.547Z,98831.00
2022-12-28T01:31:23.622Z,98831.00
2022-12-28T01:31:33.804Z,98831.00
2022-12-28T01:31:43.934Z,98831.00
2022-12-28T01:31:53.969Z,98831.00
2022-12-28T01:32:04.054Z,98829.00
2022-12-28T01:32:14.058Z,98829.00
2022-12-28T01:32:24.044Z,98829.00
2022-12-28T01:32:34.057Z,98829.00
2022-12-28T01:32:44.082Z,98827.00
2022-12-28T01:32:54.074Z,98827.00
2022-12-28T01:33:04.084Z,98829.00
2022-12-28T01:33:14.110Z,98829.00
2022-12-28T01:33:24.106Z,98829.00
2022-12-28T01:33:34.125Z,98827.00
2022-12-28T01:33:44.130Z,98827.00
2022-12-28T01:33:54.151Z,98827.00
2022-12-28T01:34:04.132Z,98825.00
2022-12-28T01:34:14.160Z,98825.00
2022-12-28T01:34:24.143Z,98825.00
2022-12-28T01:34:34.144Z,98825.00
2022-12-28T01:34:44.149Z,98823.00
2022-12-28T01:34:54.141Z,98821.00
2022-12-28T01:35:04.142Z,98827.00
2022-12-28T01:35:14.278Z,98823.00
2022-12-28T01:35:24.276Z,98819.00
2022-12-28T01:35:34.556Z,98817.00
2022-12-28T01:35:44.546Z,98825.00
2022-12-28T01:35:54.560Z,98825.00
2022-12-28T01:36:04.563Z,98821.00
2022-12-28T01:36:14.602Z,98821.00
2022-12-28T01:36:24.591Z,98827.00
2022-12-28T01:36:34.609Z,98821.00
2022-12-28T01:36:44.616Z,98821.00
2022-12-28T01:36:54.631Z,98823.00
2022-12-28T01:37:04.621Z,98821.00
2022-12-28T01:37:14.634Z,98823.00
2022-12-28T01:37:24.666Z,98823.00
2022-12-28T01:37:34.656Z,98819.00
2022-12-28T01:37:44.670Z,98823.00
2022-12-28T01:37:54.708Z,98823.00
2022-12-28T01:38:04.691Z,98823.00
2022-12-28T01:38:14.699Z,98823.00
2022-12-28T01:38:24.703Z,98821.00
2022-12-28T01:38:34.720Z,98821.00
2022-12-28T01:38:44.733Z,98821.00
2022-12-28T01:38:54.734Z,98819.00
2022-12-28T01:39:04.753Z,98819.00
2022-12-28T01:39:14.756Z,98817.00
2022-12-28T01:39:24.774Z,98817.00
2022-12-28T01:39:34.764Z,98817.00
2022-12-28T01:39:44.770Z,98817.00
2022-12-28T01:39:54.888Z,98817.00
2022-12-28T01:40:04.904Z,98815.00
2022-12-28T01:40:14.959Z,98815.00
2022-12-28T01:40:24.959Z,98817.00
2022-12-28T01:40:35.084Z,98815.00
2022-12-28T01:40:45.223Z,98815.00
2022-12-28T01:40:55.355Z,98813.00
2022-12-28T01:41:05.345Z,98813.00
2022-12-28T01:41:15.611Z,98815.00
2022-12-28T01:41:25.643Z,98815.00
2022-12-28T01:41:35.665Z,98815.00
2022-12-28T01:41:45.672Z,98812.00
2022-12-28T01:41:55.691Z,98813.00
2022-12-28T01:42:05.690Z,98813.00
2022-12-28T01:42:15.732Z,98815.00
2022-12-28T01:42:25.761Z,98815.00
2022-12-28T01:42:35.758Z,98815.00
2022-12-28T01:42:45.762Z,98813.00
2022-12-28T01:42:55.769Z,98815.00
2022-12-28T01:43:05.891Z,98817.00
2022-12-28T01:43:29.733Z,98812.00
2022-12-28T01:43:29.820Z,98813.00
2022-12-28T01:43:35.889Z,98813.00
2022-12-28T01:43:46.016Z,98813.00
2022-12-28T01:43:56.015Z,98813.00
2022-12-28T01:44:06.143Z,98812.00
2022-12-28T01:44:16.150Z,98812.00
2022-12-28T01:44:26.168Z,98815.00
2022-12-28T01:44:36.164Z,98812.00
2022-12-28T01:44:46.282Z,98813.00
2022-12-28T01:44:56.427Z,98813.00
2022-12-28T01:45:06.552Z,98813.00
2022-12-28T01:45:16.554Z,98813.00
2022-12-28T01:45:26.825Z,98813.00
2022-12-28T01:45:36.899Z,98813.00
2022-12-28T01:45:46.935Z,98812.00
2022-12-28T01:45:57.038Z,98813.00
2022-12-28T01:46:07.129Z,98813.00
2022-12-28T01:46:17.213Z,98812.00
2022-12-28T01:46:27.247Z,98812.00
2022-12-28T01:46:37.243Z,98813.00
2022-12-28T01:46:47.368Z,98813.00
2022-12-28T01:46:57.375Z,98812.00
2022-12-28T01:47:07.499Z,98815.00
2022-12-28T01:47:17.500Z,98815.00
2022-12-28T01:47:27.632Z,98813.00
2022-12-28T01:47:37.887Z,98815.00
2022-12-28T01:47:47.901Z,98812.00
2022-12-28T01:47:57.906Z,98815.00
2022-12-28T01:48:07.919Z,98813.00
2022-12-28T01:48:17.926Z,98813.00
2022-12-28T01:48:28.047Z,98815.00
2022-12-28T01:48:38.051Z,98815.00
2022-12-28T01:48:48.058Z,98813.00
2022-12-28T01:48:58.064Z,98813.00
2022-12-28T01:49:08.071Z,98815.00
2022-12-28T01:49:18.347Z,98815.00
2022-12-28T01:49:28.459Z,98815.00
2022-12-28T01:49:38.485Z,98813.00
2022-12-28T01:49:48.738Z,98813.00
2022-12-28T01:49:58.751Z,98815.00
2022-12-28T01:50:08.764Z,98812.00
2022-12-28T01:50:18.747Z,98812.00
2022-12-28T01:50:28.874Z,98808.00
2022-12-28T01:50:38.877Z,98812.00
2022-12-28T01:50:49.009Z,98810.00
2022-12-28T01:50:59.018Z,98808.00
2022-12-28T01:51:09.044Z,98810.00
2022-12-28T01:51:19.054Z,98808.00
2022-12-28T01:51:29.172Z,98802.00
2022-12-28T01:51:39.182Z,98810.00
2022-12-28T01:51:49.305Z,98804.00
2022-12-28T01:51:59.576Z,98802.00
2022-12-28T01:52:09.695Z,98802.00
2022-12-28T01:52:19.727Z,98802.00
2022-12-28T01:52:29.989Z,98800.00
2022-12-28T01:52:39.994Z,98804.00
2022-12-28T01:52:50.131Z,98800.00
2022-12-28T01:53:00.427Z,98800.00
2022-12-28T01:53:10.415Z,98800.00
2022-12-28T01:53:20.428Z,98800.00
2022-12-28T01:53:30.434Z,98800.00
2022-12-28T01:53:40.443Z,98800.00
2022-12-28T01:53:50.453Z,98798.00
2022-12-28T01:54:00.463Z,98800.00
2022-12-28T01:54:10.480Z,98798.00
2022-12-28T01:54:20.483Z,98798.00
2022-12-28T01:54:30.495Z,98800.00
2022-12-28T01:54:40.502Z,98800.00
2022-12-28T01:54:50.517Z,98798.00
2022-12-28T01:55:00.523Z,98796.00
2022-12-28T01:55:10.535Z,98798.00
2022-12-28T01:55:20.542Z,98798.00
2022-12-28T01:55:30.551Z,98796.00
2022-12-28T01:55:40.566Z,98796.00
2022-12-28T01:55:50.556Z,98794.00
2022-12-28T01:56:00.577Z,98796.00
2022-12-28T01:56:10.692Z,98792.00
2022-12-28T01:56:20.702Z,98792.00
2022-12-28T01:56:30.713Z,98792.00
2022-12-28T01:56:40.727Z,98790.00
2022-12-28T01:56:50.722Z,98790.00
2022-12-28T01:57:00.972Z,98790.00
2022-12-28T01:57:11.092Z,98788.00
2022-12-28T01:57:21.103Z,98788.00
2022-12-28T01:57:31.353Z,98784.00
2022-12-28T01:57:41.357Z,98784.00
2022-12-28T01:57:51.360Z,98786.00
2022-12-28T01:58:01.377Z,98786.00